createdAt,value
2022-11-26T00:02:25.975Z,12.23
2022-11-26T00:04:56.408Z,10.10
2022-11-26T00:07:28.681Z,16.35
2022-11-26T00:09:58.552Z,8.45
2022-11-26T00:12:35.042Z,11.52
2022-11-26T00:15:23.429Z,8.07
2022-11-26T00:17:54.260Z,7.80
2022-11-26T00:20:31.893Z,12.05
2022-11-26T00:23:03.351Z,10.57
2022-11-26T00:25:42.469Z,13.70
2022-11-26T00:28:38.793Z,8.82
2022-11-26T00:31:14.081Z,13.40
2022-11-26T00:33:42.483Z,11.77
2022-11-26T00:36:28.921Z,13.57
2022-11-26T00:39:06.310Z,7.75
2022-11-26T00:41:42.155Z,8.82
2022-11-26T00:44:31.670Z,8.00
2022-11-26T00:47:00.636Z,10.98
2022-11-26T00:49:31.832Z,8.93
2022-11-26T00:51:59.674Z,10.25
2022-11-26T00:54:28.775Z,15.60
2022-11-26T00:56:56.960Z,7.70
2022-11-26T00:59:25.404Z,14.13
2022-11-26T01:01:55.047Z,11.05
2022-11-26T01:04:22.900Z,8.60
2022-11-26T01:06:51.154Z,10.32
2022-11-26T01:09:22.339Z,12.27
2022-11-26T01:11:54.456Z,10.68
2022-11-26T01:14:23.571Z,10.48
2022-11-26T01:16:56.005Z,11.73
2022-11-26T01:19:25.263Z,10.63
2022-11-26T01:21:54.043Z,7.60
2022-11-26T01:24:23.158Z,7.70
2022-11-26T01:26:51.778Z,10.93
2022-11-26T01:29:20.317Z,9.57
2022-11-26T01:31:48.603Z,8.45
2022-11-26T01:34:16.767Z,11.10
2022-11-26T01:36:45.141Z,9.68
2022-11-26T01:39:22.456Z,10.73
2022-11-26T01:42:25.465Z,9.55
2022-11-26T01:44:53.369Z,10.35
2022-11-26T01:47:29.408Z,10.85
2022-11-26T01:50:28.352Z,10.73
2022-11-26T01:53:26.761Z,11.60
2022-11-26T01:56:04.604Z,6.57
2022-11-26T01:58:40.424Z,6.43
2022-11-26T02:01:09.403Z,10.50
2022-11-26T02:03:53.181Z,8.65
2022-11-26T02:06:30.312Z,8.73
2022-11-26T02:09:04.980Z,10.55
2022-11-26T02:11:32.809Z,8.43
2022-11-26T02:14:17.366Z,13.63
2022-11-26T02:17:15.920Z,9.15
2022-11-26T02:20:26.724Z,7.45
2022-11-26T02:23:01.090Z,11.35
2022-11-26T02:25:51.800Z,8.25
2022-11-26T02:29:16.019Z,9.75
2022-11-26T02:31:59.125Z,9.18
2022-11-26T02:34:44.910Z,9.73
2022-11-26T02:37:43.954Z,10.18
2022-11-26T02:40:12.552Z,10.73
2022-11-26T02:42:40.649Z,9.07
2022-11-26T02:45:12.652Z,10.07
2022-11-26T02:47:44.921Z,8.48
2022-11-26T02:50:25.634Z,8.50
2022-11-26T02:52:58.665Z,10.18
2022-11-26T02:55:35.372Z,9.23
2022-11-26T02:58:05.827Z,9.35
2022-11-26T03:00:37.322Z,7.47
2022-11-26T03:03:23.346Z,11.00
2022-11-26T03:06:01.744Z,9.75
2022-11-26T03:08:31.440Z,10.60
2022-11-26T03:11:00.377Z,8.60
2022-11-26T03:13:28.968Z,8.50
2022-11-26T03:15:57.920Z,11.30
2022-11-26T03:18:26.226Z,8.68
2022-11-26T03:20:54.313Z,9.52
2022-11-26T03:23:22.048Z,11.23
2022-11-26T03:25:50.189Z,7.93
2022-11-26T03:28:18.409Z,7.45
2022-11-26T03:30:46.862Z,7.72
2022-11-26T03:33:14.872Z,9.23
2022-11-26T03:35:42.877Z,9.13
2022-11-26T03:38:11.580Z,9.85
2022-11-26T03:40:41.858Z,8.85
2022-11-26T03:43:09.769Z,11.50
2022-11-26T03:45:38.084Z,8.73
2022-11-26T03:48:06.732Z,10.40
2022-11-26T03:50:34.840Z,11.32
2022-11-26T03:53:03.879Z,10.38
2022-11-26T03:55:31.753Z,9.02
2022-11-26T03:57:59.991Z,10.95
2022-11-26T04:00:29.728Z,8.95
2022-11-26T04:02:57.501Z,9.82
2022-11-26T04:05:25.183Z,9.40
2022-11-26T04:07:53.249Z,13.40
2022-11-26T04:10:21.184Z,9.18
2022-11-26T04:12:49.467Z,9.50
2022-11-26T04:15:24.806Z,8.00
2022-11-26T04:17:52.597Z,12.02
2022-11-26T04:20:20.643Z,8.25
2022-11-26T04:22:48.843Z,10.15
2022-11-26T04:25:16.822Z,7.97
2022-11-26T04:27:44.786Z,9.35
2022-11-26T04:30:13.486Z,11.60
2022-11-26T04:33:02.295Z,11.73
2022-11-26T04:35:51.018Z,8.23
2022-11-26T04:38:25.967Z,6.70
2022-11-26T04:40:54.401Z,10.50
2022-11-26T04:43:22.229Z,11.75
2022-11-26T04:45:50.289Z,7.47
2022-11-26T04:48:18.827Z,11.57
2022-11-26T04:50:47.003Z,12.95
2022-11-26T04:53:16.964Z,9.52
2022-11-26T04:55:45.116Z,6.80
2022-11-26T04:58:13.253Z,10.38
2022-11-26T05:00:41.084Z,7.43
2022-11-26T05:03:09.503Z,5.88
2022-11-26T05:05:37.843Z,7.05
2022-11-26T05:08:06.459Z,7.57
2022-11-26T05:10:34.577Z,7.03
2022-11-26T05:13:02.497Z,9.75
2022-11-26T05:15:30.773Z,6.32
2022-11-26T05:17:58.871Z,7.53
2022-11-26T05:20:26.870Z,6.43
2022-11-26T05:22:55.942Z,8.98
2022-11-26T05:25:25.192Z,7.00
2022-11-26T05:27:53.317Z,9.65
2022-11-26T05:30:21.610Z,7.32
2022-11-26T05:32:49.302Z,9.00
2022-11-26T05:35:17.176Z,8.55
2022-11-26T05:37:45.627Z,8.10
2022-11-26T05:40:14.873Z,7.07
2022-11-26T05:42:43.540Z,5.82
2022-11-26T05:45:11.582Z,16.00
2022-11-26T05:47:39.277Z,7.05
2022-11-26T05:50:10.743Z,8.70
2022-11-26T05:52:38.579Z,11.60
2022-11-26T05:55:07.494Z,11.20
2022-11-26T05:57:36.643Z,9.32
2022-11-26T06:00:07.395Z,7.95
2022-11-26T06:02:39.735Z,9.70
2022-11-26T06:05:08.624Z,11.63
2022-11-26T06:07:40.546Z,6.88
2022-11-26T06:10:12.243Z,6.13
2022-11-26T06:12:40.103Z,8.30
2022-11-26T06:15:10.325Z,9.52
2022-11-26T06:17:39.445Z,8.13
2022-11-26T06:20:08.283Z,10.15
2022-11-26T06:22:41.568Z,9.13
2022-11-26T06:25:13.862Z,12.68
2022-11-26T06:27:42.382Z,10.40
2022-11-26T06:30:12.113Z,10.85
2022-11-26T06:32:40.191Z,8.30
2022-11-26T06:35:08.631Z,13.60
2022-11-26T06:37:37.434Z,11.75
2022-11-26T06:40:06.349Z,10.05
2022-11-26T06:42:34.427Z,12.55
2022-11-26T06:45:02.590Z,7.85
2022-11-26T06:47:30.537Z,8.85
2022-11-26T06:49:58.227Z,10.35
2022-11-26T06:52:25.929Z,11.07
2022-11-26T06:54:54.027Z,7.68
2022-11-26T06:57:22.931Z,7.22
2022-11-26T06:59:54.491Z,11.63
2022-11-26T07:02:22.404Z,10.98
2022-11-26T07:04:50.380Z,27.05
2022-11-26T07:07:18.211Z,37.40
2022-11-26T07:09:46.420Z,30.20
2022-11-26T07:12:16.352Z,27.48
2022-11-26T07:14:44.452Z,29.52
2022-11-26T07:17:12.361Z,36.92
2022-11-26T07:19:41.369Z,45.55
2022-11-26T07:22:09.201Z,32.03
2022-11-26T07:24:37.770Z,27.50
2022-11-26T07:27:06.584Z,16.65
2022-11-26T07:29:34.515Z,21.17
2022-11-26T07:32:02.460Z,20.88
2022-11-26T07:34:30.264Z,20.98
2022-11-26T07:36:58.400Z,19.42
2022-11-26T07:39:26.464Z,19.33
2022-11-26T07:41:54.393Z,13.27
2022-11-26T07:44:22.150Z,15.73
2022-11-26T07:46:51.201Z,19.92
2022-11-26T07:49:19.563Z,13.75
2022-11-26T07:51:47.684Z,19.95
2022-11-26T07:54:15.609Z,13.85
2022-11-26T07:56:43.595Z,16.20
2022-11-26T07:59:12.835Z,13.55
2022-11-26T08:01:41.238Z,17.17
2022-11-26T08:04:09.306Z,14.32
2022-11-26T08:06:37.164Z,16.70
2022-11-26T08:09:05.553Z,16.20
2022-11-26T08:11:34.896Z,15.10
2022-11-26T08:14:07.221Z,10.32
2022-11-26T08:16:35.353Z,13.68
2022-11-26T08:19:09.019Z,16.85
2022-11-26T08:21:36.967Z,14.80
2022-11-26T08:24:06.035Z,14.82
2022-11-26T08:26:39.698Z,12.70
2022-11-26T08:29:14.736Z,14.15
2022-11-26T08:31:46.526Z,12.98
2022-11-26T08:34:16.448Z,15.63
2022-11-26T08:37:17.388Z,20.58
2022-11-26T08:39:49.740Z,14.45
2022-11-26T08:42:18.124Z,16.52
2022-11-26T08:44:46.016Z,11.60
2022-11-26T08:47:14.312Z,14.82
2022-11-26T08:49:42.494Z,18.65
2022-11-26T08:52:10.668Z,14.43
2022-11-26T08:54:43.472Z,12.85
2022-11-26T08:57:13.142Z,14.85
2022-11-26T09:06:40.188Z,14.07
2022-11-26T09:09:15.059Z,16.75
2022-11-26T09:15:00.119Z,21.35
2022-11-26T09:20:44.083Z,15.07
2022-11-26T09:23:11.965Z,13.75
2022-11-26T09:25:43.801Z,15.90
2022-11-26T09:28:15.333Z,14.70
2022-11-26T09:30:43.446Z,12.63
2022-11-26T09:33:16.910Z,14.60
2022-11-26T09:47:04.368Z,13.45
2022-11-26T09:49:46.038Z,10.55
2022-11-26T09:52:26.700Z,10.10
2022-11-26T09:59:12.889Z,10.73
2022-11-26T10:01:55.313Z,10.60
2022-11-26T10:04:35.428Z,10.68
2022-11-26T10:11:49.222Z,12.07
2022-11-26T10:14:54.216Z,9.90
2022-11-26T10:18:07.494Z,10.10
2022-11-26T10:21:13.647Z,9.98
2022-11-26T10:24:37.639Z,10.40
2022-11-26T10:27:29.264Z,6.35
2022-11-26T10:30:21.076Z,6.38
2022-11-26T10:32:51.451Z,10.85
2022-11-26T10:35:43.944Z,12.30
2022-11-26T10:39:08.739Z,9.63
2022-11-26T10:42:19.812Z,7.47
2022-11-26T10:44:58.488Z,9.05
2022-11-26T10:47:44.882Z,13.48
2022-11-26T10:53:23.585Z,8.10
2022-11-26T11:01:23.872Z,6.18
2022-11-26T11:04:13.625Z,8.25
2022-11-26T11:06:44.209Z,11.10
2022-11-26T11:09:29.339Z,9.37
2022-11-26T11:12:23.814Z,7.57
2022-11-26T11:14:52.507Z,8.10
2022-11-26T11:17:41.154Z,6.75
2022-11-26T11:20:15.804Z,6.90
2022-11-26T11:22:46.974Z,5.57
2022-11-26T11:25:28.902Z,7.03
2022-11-26T11:28:18.817Z,7.68
2022-11-26T11:30:57.770Z,6.38
2022-11-26T11:33:28.562Z,5.90
2022-11-26T11:36:31.207Z,7.60
2022-11-26T11:39:02.843Z,7.35
2022-11-26T11:44:25.800Z,7.25
2022-11-26T11:47:13.199Z,6.63
2022-11-26T11:50:05.574Z,5.55
2022-11-26T11:53:21.440Z,8.05
2022-11-26T11:56:21.319Z,5.15
2022-11-26T11:59:24.755Z,8.30
2022-11-26T12:02:27.287Z,8.82
2022-11-26T12:05:19.064Z,7.03
2022-11-26T12:08:50.819Z,5.65
2022-11-26T12:11:29.369Z,5.63
2022-11-26T12:14:31.274Z,5.80
2022-11-26T12:17:16.569Z,5.40
2022-11-26T12:20:01.446Z,4.57
2022-11-26T12:22:44.817Z,5.60
2022-11-26T12:25:37.261Z,6.25
2022-11-26T12:28:17.885Z,5.85
2022-11-26T12:31:06.165Z,7.70
2022-11-26T12:34:09.968Z,6.82
2022-11-26T12:36:51.429Z,6.78
2022-11-26T12:39:53.164Z,5.47
2022-11-26T12:45:21.158Z,6.55
2022-11-26T12:48:03.140Z,5.95
2022-11-26T12:50:45.107Z,8.38
2022-11-26T12:53:45.417Z,5.25
2022-11-26T12:56:33.063Z,4.65
2022-11-26T12:59:03.935Z,3.53
2022-11-26T13:01:33.597Z,5.70
2022-11-26T13:04:29.856Z,4.07
2022-11-26T13:07:14.230Z,2.67
2022-11-26T13:10:16.622Z,6.05
2022-11-26T13:13:32.154Z,5.03
2022-11-26T13:16:10.502Z,4.30
2022-11-26T13:18:53.322Z,7.15
2022-11-26T13:21:40.103Z,3.15
2022-11-26T13:24:19.108Z,4.70
2022-11-26T13:27:15.767Z,8.73
2022-11-26T13:30:20.909Z,7.55
2022-11-26T13:33:24.092Z,4.68
2022-11-26T13:36:15.801Z,7.15
2022-11-26T13:38:54.843Z,5.38
2022-11-26T13:42:14.555Z,4.88
2022-11-26T13:45:11.730Z,6.32
2022-11-26T13:47:55.755Z,9.35
2022-11-26T13:50:35.306Z,4.30
2022-11-26T13:53:27.216Z,5.93
2022-11-26T13:56:06.558Z,6.25
2022-11-26T13:58:48.017Z,3.70
2022-11-26T14:03:58.024Z,5.13
2022-11-26T14:06:28.082Z,4.30
2022-11-26T14:08:58.411Z,3.78
2022-11-26T14:11:41.941Z,3.90
2022-11-26T14:14:25.343Z,4.05
2022-11-26T14:17:02.456Z,4.72
2022-11-26T14:19:56.928Z,5.03
2022-11-26T14:22:36.590Z,5.22
2022-11-26T14:25:12.286Z,4.13
2022-11-26T14:27:55.975Z,2.50
2022-11-26T14:30:27.701Z,4.75
2022-11-26T14:33:31.347Z,4.80
2022-11-26T14:35:59.697Z,4.63
2022-11-26T14:38:31.792Z,4.85
2022-11-26T14:41:01.569Z,7.15
2022-11-26T14:43:30.081Z,7.28
2022-11-26T14:46:15.060Z,7.80
2022-11-26T14:48:50.508Z,10.10
2022-11-26T14:51:25.277Z,7.78
2022-11-26T14:53:56.383Z,4.07
2022-11-26T14:56:25.843Z,8.10
2022-11-26T14:58:58.690Z,6.75
2022-11-26T15:01:33.076Z,5.55
2022-11-26T15:04:06.958Z,6.85
2022-11-26T15:06:43.310Z,4.80
2022-11-26T15:09:19.471Z,6.90
2022-11-26T15:12:14.329Z,4.90
2022-11-26T15:14:59.129Z,3.83
2022-11-26T15:17:30.907Z,4.35
2022-11-26T15:20:06.872Z,4.45
2022-11-26T15:22:42.605Z,5.22
2022-11-26T15:25:38.474Z,12.25
2022-11-26T15:28:17.729Z,15.95
2022-11-26T15:31:05.597Z,13.40
2022-11-26T15:33:35.857Z,11.93
2022-11-26T15:36:06.842Z,11.38
2022-11-26T15:38:38.651Z,8.65
2022-11-26T15:41:19.523Z,20.85
2022-11-26T15:43:52.736Z,9.93
2022-11-26T15:46:35.159Z,10.00
2022-11-26T15:49:08.214Z,11.38
2022-11-26T15:51:50.013Z,14.10
2022-11-26T15:54:24.634Z,16.20
2022-11-26T15:57:07.702Z,10.95
2022-11-26T15:59:51.748Z,8.15
2022-11-26T16:02:23.742Z,9.95
2022-11-26T16:04:56.711Z,6.18
2022-11-26T16:07:28.457Z,4.70
2022-11-26T16:10:22.501Z,4.25
2022-11-26T16:13:15.901Z,6.80
2022-11-26T16:16:08.343Z,4.25
2022-11-26T16:18:59.964Z,3.42
2022-11-26T16:21:34.337Z,5.97
2022-11-26T16:24:36.229Z,3.38
2022-11-26T16:27:07.838Z,4.43
2022-11-26T16:29:36.301Z,5.82
2022-11-26T16:32:24.441Z,12.00
2022-11-26T16:34:52.796Z,9.40
2022-11-26T16:37:31.959Z,11.30
2022-11-26T16:40:13.485Z,9.73
2022-11-26T16:42:43.144Z,8.52
2022-11-26T16:45:13.316Z,13.52
2022-11-26T16:47:53.861Z,12.13
2022-11-26T16:50:26.644Z,16.60
2022-11-26T16:52:55.790Z,12.02
2022-11-26T16:55:27.905Z,11.45
2022-11-26T16:58:01.393Z,8.55
2022-11-26T17:00:30.964Z,5.10
2022-11-26T17:02:59.082Z,3.53
2022-11-26T17:05:27.263Z,3.88
2022-11-26T17:07:59.077Z,6.32
2022-11-26T17:10:29.869Z,2.38
2022-11-26T17:12:59.295Z,4.00
2022-11-26T17:15:27.152Z,4.35
2022-11-26T17:18:02.425Z,4.60
2022-11-26T17:20:31.614Z,3.42
2022-11-26T17:22:59.989Z,3.60
2022-11-26T17:25:27.990Z,13.77
2022-11-26T17:27:55.899Z,16.70
2022-11-26T17:30:24.896Z,19.20
2022-11-26T17:32:53.159Z,19.08
2022-11-26T17:35:21.411Z,19.42
2022-11-26T17:37:49.827Z,18.92
2022-11-26T17:40:23.676Z,17.23
2022-11-26T17:42:51.959Z,14.68
2022-11-26T17:45:20.590Z,16.33
2022-11-26T17:47:49.523Z,17.50
2022-11-26T17:50:25.859Z,16.02
2022-11-26T17:52:55.057Z,14.85
2022-11-26T17:55:26.311Z,16.55
2022-11-26T17:57:55.459Z,12.55
2022-11-26T18:00:31.118Z,11.60
2022-11-26T18:02:59.693Z,11.95
2022-11-26T18:05:28.216Z,8.73
2022-11-26T18:07:56.359Z,13.65
2022-11-26T18:10:24.703Z,25.35
2022-11-26T18:12:54.695Z,30.63
2022-11-26T18:15:26.412Z,27.33
2022-11-26T18:17:56.034Z,19.38
2022-11-26T18:20:27.634Z,17.80
2022-11-26T18:25:26.343Z,12.23
2022-11-26T18:27:54.429Z,7.47
2022-11-26T18:30:22.444Z,5.28
2022-11-26T18:32:50.364Z,5.93
2022-11-26T18:35:19.973Z,7.75
2022-11-26T18:37:48.759Z,12.77
2022-11-26T18:40:18.457Z,6.55
2022-11-26T18:42:51.477Z,6.95
2022-11-26T18:45:19.548Z,5.82
2022-11-26T18:47:47.862Z,6.47
2022-11-26T18:50:15.899Z,9.10
2022-11-26T18:52:43.939Z,6.97
2022-11-26T18:55:16.160Z,9.02
2022-11-26T18:57:44.419Z,7.47
2022-11-26T19:00:14.274Z,6.38
2022-11-26T19:02:42.304Z,10.07
2022-11-26T19:05:11.245Z,11.77
2022-11-26T19:07:39.959Z,11.88
2022-11-26T19:10:09.268Z,15.48
2022-11-26T19:12:40.648Z,14.90
2022-11-26T19:15:08.953Z,16.10
2022-11-26T19:17:38.289Z,17.83
2022-11-26T19:20:07.724Z,21.02
2022-11-26T19:22:37.322Z,19.40
2022-11-26T19:25:06.473Z,27.83
2022-11-26T19:27:35.814Z,23.30
2022-11-26T19:30:05.376Z,23.65
2022-11-26T19:32:34.050Z,22.35
2022-11-26T19:35:05.797Z,25.88
2022-11-26T19:37:34.660Z,23.48
2022-11-26T19:40:06.446Z,27.10
2022-11-26T19:42:36.078Z,39.90
2022-11-26T19:45:04.885Z,25.02
2022-11-26T19:47:33.224Z,24.00
2022-11-26T19:50:01.566Z,23.25
2022-11-26T19:52:30.045Z,21.88
2022-11-26T19:54:58.804Z,20.25
2022-11-26T19:57:26.866Z,18.17
2022-11-26T19:59:54.796Z,16.67
2022-11-26T20:02:23.048Z,13.70
2022-11-26T20:04:51.407Z,10.93
2022-11-26T20:07:19.527Z,11.02
2022-11-26T20:09:52.318Z,11.32
2022-11-26T20:12:20.718Z,11.20
2022-11-26T20:14:49.191Z,11.73
2022-11-26T20:17:17.965Z,11.90
2022-11-26T20:19:46.210Z,11.15
2022-11-26T20:22:14.910Z,12.82
2022-11-26T20:24:43.318Z,15.52
2022-11-26T20:27:12.920Z,20.10
2022-11-26T20:29:40.970Z,18.02
2022-11-26T20:32:09.827Z,19.10
2022-11-26T20:34:38.232Z,20.08
2022-11-26T20:37:06.542Z,24.15
2022-11-26T20:39:38.217Z,25.90
2022-11-26T20:42:07.135Z,25.38
2022-11-26T20:44:35.485Z,21.45
2022-11-26T20:47:04.046Z,21.65
2022-11-26T20:49:36.011Z,18.10
2022-11-26T20:52:09.160Z,16.58
2022-11-26T20:54:37.475Z,11.07
2022-11-26T20:57:07.055Z,10.48
2022-11-26T20:59:35.772Z,15.77
2022-11-26T21:02:04.769Z,15.63
2022-11-26T21:04:33.957Z,22.67
2022-11-26T21:07:02.897Z,21.15
2022-11-26T21:09:32.355Z,22.27
2022-11-26T21:12:00.702Z,21.73
2022-11-26T21:14:30.997Z,23.80
2022-11-26T21:17:00.106Z,22.45
2022-11-26T21:19:29.897Z,20.00
2022-11-26T21:21:59.327Z,20.85
2022-11-26T21:24:27.811Z,21.90
2022-11-26T21:26:56.316Z,17.58
2022-11-26T21:29:24.541Z,19.50
2022-11-26T21:31:53.171Z,19.63
2022-11-26T21:34:21.956Z,23.48
2022-11-26T21:36:50.101Z,21.05
2022-11-26T21:39:18.318Z,17.60
2022-11-26T21:41:46.841Z,21.40
2022-11-26T21:44:15.268Z,17.42
2022-11-26T21:46:43.534Z,18.48
2022-11-26T21:49:12.070Z,17.23
2022-11-26T21:51:41.025Z,15.75
2022-11-26T21:54:09.916Z,18.88
2022-11-26T21:56:38.525Z,15.73
2022-11-26T21:59:06.530Z,18.42
2022-11-26T22:01:38.320Z,20.17
2022-11-26T22:04:14.992Z,17.65
2022-11-26T22:06:47.759Z,19.27
2022-11-26T22:09:17.537Z,23.42
2022-11-26T22:11:46.607Z,29.17
2022-11-26T22:14:17.119Z,25.13
2022-11-26T22:16:48.205Z,22.80
2022-11-26T22:19:16.414Z,16.42
2022-11-26T22:21:44.894Z,23.52
2022-11-26T22:24:20.681Z,24.48
2022-11-26T22:26:48.883Z,17.70
2022-11-26T22:29:19.116Z,18.67
2022-11-26T22:31:48.390Z,21.17
2022-11-26T22:34:21.793Z,16.88
2022-11-26T22:36:49.784Z,19.95
2022-11-26T22:39:18.801Z,16.63
2022-11-26T22:41:48.658Z,17.70
2022-11-26T22:44:18.288Z,18.05
2022-11-26T22:46:46.959Z,18.23
2022-11-26T22:49:18.080Z,20.02
2022-11-26T22:51:47.449Z,15.60
2022-11-26T22:54:18.284Z,18.70
2022-11-26T22:56:47.767Z,16.83
2022-11-26T22:59:15.754Z,19.83
2022-11-26T23:01:43.708Z,19.17
2022-11-26T23:04:12.585Z,21.63
2022-11-26T23:06:40.571Z,20.42
2022-11-26T23:09:10.001Z,17.77
2022-11-26T23:11:41.615Z,16.67
2022-11-26T23:14:12.015Z,15.70
2022-11-26T23:16:42.769Z,16.75
2022-11-26T23:19:15.502Z,12.00
2022-11-26T23:21:46.613Z,16.80
2022-11-26T23:24:16.653Z,17.92
2022-11-26T23:26:44.990Z,17.85
2022-11-26T23:29:13.940Z,15.38
2022-11-26T23:31:44.582Z,16.88
2022-11-26T23:34:13.373Z,16.00
2022-11-26T23:36:41.707Z,15.23
2022-11-26T23:39:13.622Z,16.52
2022-11-26T23:41:41.785Z,20.60
2022-11-26T23:44:09.722Z,15.90
2022-11-26T23:46:37.893Z,16.17
2022-11-26T23:49:06.867Z,15.45
2022-11-26T23:51:35.008Z,16.30
2022-11-26T23:54:03.319Z,16.10
2022-11-26T23:56:33.904Z,16.15
2022-11-26T23:59:04.760Z,16.13
